Saint Charles, South Dakota
Current Conditions -  °F | °C
As of 9:53 PM on Tuesday 21 Oct 2014 (Local Time) from KICR Reporting Station
Clear Clear  
Wind Chill: 68°   Ceiling: Unl
Heat Index: 68°   Visibility: 10mi
Dew Point: 49°   Wind: 21mph
Humidity: 50%   Direction: 160°SSE
Pressure: 29.83"   Gusts: 31mph
Location:  43.09°N, 99.1°W
Report Text: KICR 220253Z AUTO 16018G27KT 10SM CLR 20/09 A2983 RMK AO2 PK WND 16029/0243 SLP090 T02000094 50001
Loading
Personal Weather Stations






























Interactive Weather Map
Tropical Storm Tracking
New forecast layout! Learn more

10-Day Weather Forecast

Advertisements
Track Severe Weather on mobile